Terminal Aerodrome Forecast
Issued by NWS

Home | Current Version | Previous Version | Text Only | Print | Product List | Glossary On
Versions: 1 2 3 4 5 6 7 8 9 10 11 12 13
000
FTUS41 KBTV 012032 AAA
TAFMSS
TAF AMD
KMSS 012032Z 0121/0218 07009KT 4SM -RA BR BKN025 BKN040
     FM012200 06009KT 3SM -SHRA BR BKN020 OVC025
     FM020400 00000KT P6SM VCSH BKN015 OVC025
     FM020800 00000KT P6SM VCSH BKN010 OVC025
     FM021400 05006KT P6SM VCSH OVC010=

USA.gov is the U.S. government's official web portal to all federal, state and local government web resources and services.